Mirzo Hasanov

Scout - Pakhtakor
3 Dec 2028
Sunday
Process

Personality

Adaptability (20) Ambition (18) Controversy (13) Loyalty (15) Pressure (19) Professionalism (10) Sportsmanship (10) Temperament (4)

Profile

Coaching Style Democratic
License Continental C
Determination 4
Man Management 4
Motivating 4
Discipline 5
Job Satisfaction
100%
Fatigue
0%
Role Scout
Wage 70.4K p/w
Contract 14.03.2029

Performance

Behaviour Good
Training Effectiveness
36%
Player Development
60%
Injury Prevention
20%
Tactical Implementation
30%

Recent Events

Attended a recruitment meeting now
Assessed a player now
Assessed a player now
Assessed a player now
Assessed a player now
Assessed a player now
Assessed a player now
Assessed a player now

Currently Monitoring

385
Player Club Status Ability Confidence Watched Last Observed Latest Vote
Maximiliano Romero San Lorenzo Active 126 / 126 40% 4 02.12.2028 -
Carlton Morris Derby County Active 126 / 124 40% 4 02.12.2028 -
Francisco Valencia Junior Active 126 / 123 40% 3 02.12.2028 -
Marek Rodák Al-Hilal Active 136 / 144 40% 2 02.12.2028 -
Balázs Tóth Blackburn Rovers Active 144 / 137 40% 2 02.12.2028 -
Daniil Odoevskiy Zenit Active 130 / 133 40% 1 02.12.2028 -
Randy Nteka Krasnodar Active 122 / 134 40% 6 01.12.2028 -
Simone Mazzocchi Cosenza Active 130 / 126 40% 3 01.12.2028 -
Luis Ingolotti Atlético Tucumán Active 135 / 128 40% 2 01.12.2028 -
Sebastián Driussi River Plate Active 135 / 135 40% 1 01.12.2028 -
Jonathan Fischer FC Metz Active 144 / 146 40% 1 01.12.2028 -
Jonathan Klinsmann Cesena Active 137 / 133 40% 1 01.12.2028 -
Uriel Antuna Dinamo Moscow Active 131 / 132 40% 6 30.11.2028 -
Agustín Ruberto River Plate Active 112 / 125 40% 2 30.11.2028 -
Jerónimo Domina Cádiz Active 126 / 126 40% 1 30.11.2028 -
Dmitry Vorobjov Spartak Moscow Active 118 / 125 40% 4 29.11.2028 -
Lautaro Morales Lanús Active 138 / 130 40% 2 29.11.2028 -
Maximiliano Salas River Plate Active 124 / 132 40% 2 29.11.2028 -
Adrián Alavés Active 136 / 129 40% 1 29.11.2028 -
Abduvohid Ne'matov Nasaf Active 133 / 130 40% 2 28.11.2028 -
Konstantin Kuchaev Rostov Active 129 / 118 40% 2 28.11.2028 -
Tomás O'Connor Gimnasia y Esgrima Active 125 / 123 40% 2 28.11.2028 -
Timothy Fayulu Sion Active 131 / 131 40% 1 28.11.2028 -
Vladan Kovačević Norwich City Active 123 / 132 40% 1 28.11.2028 -
Danil Krugovoy Orenburg Active 118 / 131 40% 1 28.11.2028 -
Federico Losas Chacarita Juniors Active 131 / 124 40% 3 27.11.2028 -
Matías Giménez Rojas Argentinos Juniors Active 114 / 117 40% 2 27.11.2028 -
Islam Imamov SKA Khabarovsk Active 100 / 101 40% 1 27.11.2028 -
Artur Anisimov KAMAZ Active 108 / 99 40% 1 27.11.2028 -
Yegor Golenkov CSKA Moscow Active 133 / 119 40% 1 27.11.2028 -
Clemente Montes Santiago Wanderers Active 124 / 129 40% 4 26.11.2028 -
Alejo Dramisino Atlanta Active 110 / 123 40% 2 26.11.2028 -
Davis Keillor-Dunn Bolton Wanderers Active 128 / 124 40% 3 26.11.2028 -
Saldanha Al Wasl Active 152 / 146 40% 2 26.11.2028 -
Thiago Santamaría Argentinos Juniors Active 124 / 125 40% 1 26.11.2028 -
Facundo Lencioni Gimnasia y Esgrima Active 125 / 119 40% 1 26.11.2028 -
Jacopo Seghetti Empoli Active 138 / 142 40% 1 25.11.2028 -
Devis Vásquez AS Roma Active 134 / 138 40% 1 25.11.2028 -
Gennaro Tutino Sampdoria Active 124 / 131 40% 6 24.11.2028 -
Thijs Oosting Zwolle Active 128 / 127 40% 2 24.11.2028 -
Tomás Conechny Racing Club Active 126 / 130 40% 2 24.11.2028 -
Alexandr Zarutskii Aktobe Active 111 / 109 40% 2 23.11.2028 -
Nahuel González Alvarado Active 111 / 103 40% 2 23.11.2028 -
Jeremías Ledesma River Plate Active 126 / 131 40% 1 23.11.2028 -
Emilio Di Fulvio Colegiales Active 128 / 114 40% 4 20.11.2028 -
Roberto Ramírez Godoy Cruz Active 116 / 112 40% 4 20.11.2028 -
Thiago Cardozo Unión de Santa Fe Active 133 / 131 40% 5 20.11.2028 -
Jorge Cabezas Hurtado Watford Active 125 / 124 40% 1 20.11.2028 -
Iván Chaves Patronato Active 111 / 108 40% 2 19.11.2028 -
Álvaro Busso Vélez Active 113 / 113 40% 1 19.11.2028 -
Daniil Perov Smorgon Active 99 / 104 40% 1 19.11.2028 -
Nathan Fogaça Santos Active 139 / 122 40% 2 18.11.2028 -
Brian Aguirre Boca Juniors Active 125 / 125 40% 3 18.11.2028 -
Lautaro Maldonado Instituto Active 108 / 114 40% 4 18.11.2028 -
Joaquín Blázquez Talleres Active 133 / 121 40% 2 18.11.2028 -
Juan Pablo Insúa Barracas Central Active 126 / 115 40% 1 18.11.2028 -
Maxim Borisko CSKA Moscow Active 135 / 125 40% 1 18.11.2028 -
Alexei Rojas Fedorushchenko Barrow AFC Active 127 / 128 40% 1 18.11.2028 -
Luis Ángel Díaz Independiente Rivadavia Active 136 / 125 40% 2 15.11.2028 -
Jaminton Campaz Rosario Central Active 124 / 132 40% 2 15.11.2028 -
Alejandro Cantero Jomo Cosmos Active 137 / 122 40% 3 15.11.2028 -
David Ankeye Zeleznicar Pancevo Active 124 / 124 40% 1 15.11.2028 -
Rumarn Burrell Borussia Mönchengladbach Active 128 / 135 40% 3 10.11.2028 -
Mamadou Camara Stade Lavallois Active 116 / 116 40% 1 10.11.2028 -
Alexandr Rudenko Lokomotiv Moscow Active 118 / 125 40% 4 09.11.2028 -
Ignacio Ramírez Newell's Old Boys Active 136 / 128 40% 7 09.11.2028 -
Esteban Glellel Quilmes Active 111 / 114 40% 5 09.11.2028 -
Mauro Casoli Talleres Active 114 / 105 40% 1 08.11.2028 -
Matías Mansilla Estudiantes Active 121 / 131 40% 1 08.11.2028 -
Lautaro Herrera Estudiantes Active 103 / 106 40% 2 07.11.2028 -
Elías Torres Racing Club Active 136 / 121 40% 1 07.11.2028 -
Yusuke Matsuo Ipswich Town Active 140 / 133 40% 1 07.11.2028 -
Alejandro Rodríguez Melgar Active 132 / 128 40% 1 07.11.2028 -
Bruno Leyes Godoy Cruz Active 141 / 126 40% 3 06.11.2028 -
Matías Reali San Lorenzo Active 125 / 126 40% 3 06.11.2028 -
Lisandro Piñero Banfield Active 139 / 125 40% 1 06.11.2028 -
Tomás Chancalay New England Revolution Active 123 / 132 40% 7 05.11.2028 -
Vanja Vlahović Spezia Active 138 / 131 40% 2 05.11.2028 -
Alejo Medina Agropecuario Argentino Active 122 / 108 40% 2 05.11.2028 -
Alexandr Koryakin Krasnodar Active 121 / 118 40% 2 05.11.2028 -
Mateo Bajamich Atlético Tucumán Active 114 / 124 40% 1 05.11.2028 -
Luis Palacios Once Caldas Active 132 / 124 40% 3 04.11.2028 -
Ivan Oleinikov Krylya Sovetov Active 130 / 122 40% 1 04.11.2028 -
John Córdoba Millonarios Active 133 / 120 40% 1 04.11.2028 -
Mikhail Ignatov Sochi Active 119 / 120 40% 2 03.11.2028 -
Anton Zinkovskiy Spartak Moscow Active 129 / 119 40% 2 03.11.2028 -
Luka Tsulukidze Dinamo Batumi Active 126 / 119 40% 1 03.11.2028 -
Facundo Farías Estudiantes Active 140 / 133 40% 5 02.11.2028 -
Giorgi Arabidze Torpedo Kutaisi Active 123 / 114 40% 3 02.11.2028 -
Franco Cristaldo Talleres Active 129 / 125 40% 1 02.11.2028 -
Adam Buksa Udinese Active 128 / 131 40% 4 01.11.2028 -
Isaac Boehmer Vancouver Whitecaps Active 102 / 110 40% 2 01.11.2028 -
Maxim Belov Dinamo Brest Active 102 / 103 40% 1 01.11.2028 -
Facundo Vila Estudiantes Active 101 / 107 40% 3 31.10.2028 -
Emiliano González Almagro Active 132 / 122 40% 2 31.10.2028 -
Moses Cobnan Krasnodar Active 117 / 126 40% 2 31.10.2028 -
Mateo Coronel Atlético Tucumán Active 115 / 124 40% 1 31.10.2028 -
Ramiro Ruiz Rodríguez Atlético Tucumán Active 117 / 124 40% 4 30.10.2028 -
Yuber Quiñónes Patriotas Active 116 / 118 40% 3 30.10.2028 -
Rüstəm Əhmədzadə Sumgayit Active 127 / 122 40% 1 30.10.2028 -
Carlos Fernández Betis Active 134 / 129 40% 1 30.10.2028 -
Lucas Acosta Aldosivi Active 126 / 129 40% 1 29.10.2028 -
Joaquín Papaleo Gimnasia y Tiro Active 115 / 112 40% 1 29.10.2028 -
Anthony Cletus Bendel Insurance Active 89 / 105 40% 1 29.10.2028 -
Valentín Moreno Tigre Active 110 / 120 40% 2 28.10.2028 -
Sasha Marcich Lanús Active 124 / 119 40% 1 28.10.2028 -
Husain Norchayev Navbahor Active 116 / 117 40% 6 27.10.2028 -
Francisco González Metilli Belgrano Active 125 / 119 40% 3 27.10.2028 -
Gastón Benedetti Estudiantes Active 138 / 130 40% 1 27.10.2028 -
Gastón Togni Defensa y Justicia Active 128 / 130 40% 1 26.10.2028 -
Manuel Guillén Argentinos Juniors Active 119 / 120 40% 1 26.10.2028 -
Olawale Farayola Alashkert Active 120 / 130 40% 1 24.10.2028 -
Kirill Veidyger Neman Active 92 / 99 40% 3 23.10.2028 -
Nicolás Sumavil Platense Active 112 / 123 40% 1 23.10.2028 -
Alexander Díaz Deportivo Riestra Active 124 / 122 40% 1 23.10.2028 -
Lautaro Díaz Cruzeiro Active 135 / 125 40% 4 21.10.2028 -
Pavel Meleshin Lokomotiv Moscow Active 132 / 121 40% 2 21.10.2028 -
Antonio Carrera Falkenberg Active 107 / 117 40% 1 21.10.2028 -
Farhod Rahmatov Qizilqum Active 94 / 97 40% 1 21.10.2028 -
Lucas Cuevas Rosario Central Active 114 / 118 40% 2 20.10.2028 -
Evgeny Latyshonok Nizhniy Novgorod Active 130 / 124 40% 2 20.10.2028 -
Arthur Gomes Dinamo Moscow Active 121 / 130 40% 3 18.10.2028 -
Tomás Palleres Güemes Active 88 / 97 40% 4 18.10.2028 -
Daniel Sappa San Miguel Active 110 / 115 40% 1 18.10.2028 -
Facundo Sanguinetti Banfield Active 122 / 135 40% 1 17.10.2028 -
Daniil Ustimenko Tobol Active 117 / 118 40% 1 17.10.2028 -
Sam Smith Wrexham Active 133 / 127 40% 1 17.10.2028 -
Christian Saydee Wigan Athletic Active 128 / 121 40% 1 17.10.2028 -
Ramiro Hernandes Belgrano Active 124 / 128 40% 1 17.10.2028 -
Oliver Burke Union Berlin Active 128 / 132 40% 4 15.10.2028 -
Bekkhan Shaizada Ordabasy Active 122 / 115 40% 2 13.10.2028 -
Aaron Collins Milton Keynes Dons Active 122 / 121 40% 2 13.10.2028 -
Nelson Insfrán Gimnasia La Plata Active 110 / 121 40% 1 13.10.2028 -
Igor Jesus Los Angeles Football Club Active 121 / 131 40% 1 12.10.2028 -
Cedric Teuchert Borussia Mönchengladbach Active 135 / 133 40% 2 10.10.2028 -
Denzel Jubitana Neftchi Active 131 / 120 40% 1 10.10.2028 -
Kevin Piscopo Juve Stabia Active 119 / 128 40% 1 10.10.2028 -
Kevin Chacón Alianza Petrolera Active 104 / 105 40% 1 08.10.2028 -
Daniel Barrea Godoy Cruz Active 112 / 127 40% 3 06.10.2028 -
Luciano Herrera Newell's Old Boys Active 113 / 117 40% 1 06.10.2028 -
Evgeniy Abramovich Slavia Mozyr Active 92 / 99 40% 2 05.10.2028 -
Rodrigo Auzmendi Banfield Active 124 / 130 40% 2 02.10.2028 -
Juan Pablo Rial San Telmo Active 104 / 111 40% 1 02.10.2028 -
Muhammadyusuf Sobirov Bunyodkor Active 109 / 117 40% 2 01.10.2028 -
Ángel Maciel Tacuarembo Active 123 / 116 40% 1 01.10.2028 -
Mikhail Kozakevich Dinamo Minsk Active 113 / 106 40% 1 01.10.2028 -
Lion Lauberbach Venezia Active 134 / 133 40% 1 01.10.2028 -
Brian Olivera Racing Active 108 / 116 40% 1 29.09.2028 -
Chuba Akpom Universitario Active 115 / 125 40% 4 28.09.2028 -
Franco Watson Lanús Active 121 / 129 40% 2 27.09.2028 -
Patricio Moyano Defensores Active 110 / 124 40% 1 25.09.2028 -
M'Bala Nzola Cagliari Active 141 / 138 40% 1 24.09.2028 -
Dailon Livramento Hellas Verona Active 123 / 121 40% 1 23.09.2028 -
Federico Bonazzoli Pisa Active 145 / 135 40% 3 22.09.2028 -
Filip Stojilković Lecce Active 138 / 134 40% 1 20.09.2028 -
Renzo Tesuri Atlético Tucumán Active 111 / 125 40% 1 20.09.2028 -
Luciano Jachfe Nueva Chicago Active 118 / 122 40% 2 19.09.2028 -
Emil Riis Leicester City Active 127 / 128 40% 3 14.09.2028 -
Guillermo Balzi Newell's Old Boys Active 140 / 119 40% 2 14.09.2028 -
Joaquín Mosqueira Talleres Active 133 / 127 40% 1 14.09.2028 -
Jalen Blesa Oliveirense Active 133 / 129 40% 1 14.09.2028 -
Edwuin Cetré Estudiantes Active 112 / 127 40% 1 13.09.2028 -
Lucas Souto Defensa y Justicia Active 116 / 123 40% 1 12.09.2028 -
Imran Oulad Omar Dinamo Batumi Active 110 / 116 40% 1 12.09.2028 -
Walter Mazzantti Independiente Active 116 / 125 40% 3 11.09.2028 -
Miguel Merentiel Qarabag Active 125 / 139 40% 2 10.09.2028 -
Jonás Acevedo Instituto Active 124 / 118 40% 1 10.09.2028 -
Leonardo Candellone Virtus Entella Active 124 / 123 40% 1 05.09.2028 -
Koffi Kouao Neftchi Active 135 / 125 40% 5 04.09.2028 -
Mathias Pereira Lage RB Leipzig Active 130 / 142 40% 3 31.08.2028 -
Joaquín Bigo Tristán Suárez Active 122 / 113 40% 1 30.08.2028 -
Juan Manuel Gutiérrez Defensa y Justicia Active 136 / 129 40% 2 29.08.2028 -
Zoran Marušić Neftchi Rejected 102 / 103 62% 1 28.08.2028 Reject
David Martínez Los Angeles Football Club Active 139 / 124 40% 1 28.08.2028 -
Joao Ortiz Portland Timbers Active 136 / 121 40% 2 25.08.2028 -
Jacob Brown Barrow AFC Active 121 / 122 40% 2 23.08.2028 -
Juan Velázquez Belgrano Active 131 / 125 40% 1 20.08.2028 -
Bruno Barticciotto Talleres Active 140 / 127 40% 1 19.08.2028 -
Szymon Żurkowski Spezia Active 122 / 130 40% 1 19.08.2028 -
Davide Mastrantonio Latina Active 116 / 118 40% 1 18.08.2028 -
Kristjan Matošević Triestina Active 122 / 116 40% 1 18.08.2028 -
Sergio Barlocco Trento Active 131 / 126 40% 2 16.08.2028 -
Victor De Lucia Casertana Active 99 / 106 40% 1 16.08.2028 -
Francisco Salerno Defensores Unidos Active 102 / 113 40% 1 15.08.2028 -
Bohdan Sarnavskyi Irtysh Active 95 / 103 40% 1 14.08.2028 -
Alessio Cragno Südtirol Active 133 / 128 40% 1 14.08.2028 -
Mattia Perin Palermo Active 140 / 142 40% 1 10.08.2028 -
Gaëtan Coucke Sampdoria Active 126 / 130 40% 2 09.08.2028 -
Jordan Amissah Burton Albion Active 109 / 120 40% 2 09.08.2028 -
Fran Vieites Walsall Active 131 / 131 40% 1 08.08.2028 -
Riccardo Turicchia Triestina Active 121 / 119 40% 1 06.08.2028 -
Vicente Poggi Godoy Cruz Active 134 / 119 40% 1 04.08.2028 -
Freddi Greco Monopoli Active 127 / 116 40% 1 04.08.2028 -
Pol Valentín Cambridge United Active 127 / 120 40% 8 03.08.2028 -
Oliver Casey Blackpool Active 122 / 121 40% 1 03.08.2028 -
Greg Docherty Barrow AFC Active 113 / 122 40% 2 02.08.2028 -
Daniel Harvie Wycombe Wanderers Active 119 / 121 40% 2 02.08.2028 -
Jack Shepherd Swindon Town Active 126 / 115 40% 1 01.08.2028 -
Maxime Leverbe Vicenza Active 128 / 123 40% 2 31.07.2028 -
Marc Baró Leiria Active 122 / 119 40% 1 30.07.2028 -
Marco Tumminello Benevento Active 118 / 116 40% 1 30.07.2028 -
Matthew Litherland Harrogate Town Active 127 / 125 40% 4 25.07.2028 -
Ibrahima Koné Almería Active 126 / 131 40% 1 23.07.2028 -
Fedor Chalov PAOK Active 130 / 134 40% 1 19.07.2028 -
Radinio Balker Huddersfield Town Active 124 / 120 40% 1 14.07.2028 -
Roberto de la Rosa Monterrey Active 115 / 131 40% 1 12.07.2028 -
Remco Balk Twente Active 121 / 125 40% 1 10.07.2028 -
Lloyd Jones Charlton Athletic Active 128 / 133 40% 2 09.07.2028 -
Alexey Mironov Rostov Active 125 / 128 40% 2 06.07.2028 -
Tom Davies Barnet Active 132 / 135 40% 1 06.07.2028 -
Bobur Abdiholiqov Nasaf Rejected 118 / 117 62% 1 03.07.2028 -
Nahuel Estévez Cosenza Active 135 / 130 40% 3 01.07.2028 -
Lewie Coyle Accrington Stanley Active 111 / 121 40% 2 30.06.2028 -
Maxim Mukhin Rostov Active 124 / 125 40% 1 30.06.2028 -
Casper De Norre Millwall Rejected 134 / 122 40% 2 29.06.2028 Needs More Info
Lorenzo Carissoni Padova Active 128 / 124 40% 1 29.06.2028 -
Tormena Krasnodar Active 148 / 139 40% 2 28.06.2028 -
Fernando Costanza Krylya Sovetov Active 115 / 132 40% 1 28.06.2028 -
Kevin Pina Krasnodar Active 124 / 130 40% 7 24.06.2028 -
Jari Vandeputte Cremonese Active 139 / 134 40% 3 24.06.2028 -
Nazmi Gripshi Rubin Active 118 / 126 40% 4 23.06.2028 -
Luis Chávez Dinamo Moscow Active 132 / 139 40% 6 22.06.2028 -
Robert Mejía Orenburg Active 131 / 120 40% 6 22.06.2028 -
Jordan Storey Crewe Alexandra Active 116 / 120 40% 3 20.06.2028 -
Ryan Wintle Milton Keynes Dons Active 113 / 122 40% 7 19.06.2028 -
Eldar Ćivić Baltika Active 135 / 124 40% 5 15.06.2028 -
Zé Carlos Gil Vicente Active 127 / 126 40% 1 14.06.2028 -
Rúben Rodrigues Bolton Wanderers Active 122 / 121 40% 1 13.06.2028 -
John Swift Portsmouth Active 117 / 122 40% 1 12.06.2028 -
Andrea Cagnano Arezzo Active 118 / 117 40% 1 08.06.2028 -
Alisher Odilov Neftchi Rejected 109 / 111 62% 1 05.06.2028 -
Aziz Xolmurodov AGMK Rejected 111 / 107 62% 1 04.06.2028 -
Marat Bokoev Akron Active 120 / 119 40% 2 03.06.2028 -
Maksim Samorodov Akhmat Grozny Active 129 / 123 40% 5 01.06.2028 -
Andrey Mazurin Yenisey Active 103 / 95 40% 4 30.05.2028 -
Charlie Whitaker Tranmere Rovers Active 111 / 101 40% 1 30.05.2028 -
Louis Flower Crawley Town Active 97 / 97 40% 2 29.05.2028 -
Stepan Oganesyan Fakel Active 117 / 97 40% 1 29.05.2028 -
Ryan Kavuma-McQueen Accrington Stanley Active 125 / 134 40% 3 28.05.2028 -
Matthew Smith Accrington Stanley Active 112 / 111 40% 1 27.05.2028 -
Dmitry Vasiljev Orenburg Active 133 / 121 40% 2 26.05.2028 -
Jasper Pattenden Stevenage Active 108 / 99 40% 1 26.05.2028 -
Ben Whiteman Harrogate Town Active 126 / 122 40% 2 25.05.2028 -
Taylor Richards Crawley Town Active 103 / 109 40% 1 25.05.2028 -
Mattia Zennaro Union Brescia Active 120 / 120 40% 1 25.05.2028 -
Sergey Babkin Lokomotiv Moscow Active 117 / 119 40% 3 24.05.2028 -
Matija Popović Fakel Active 110 / 117 40% 3 24.05.2028 -
Denzel Hall Rotherham United Active 103 / 112 40% 1 24.05.2028 -
Akin Famewo Bolton Wanderers Active 125 / 122 40% 1 24.05.2028 -
Ilja Agapov Ufa Active 131 / 124 40% 3 23.05.2028 -
Christopher Martins Pereira Spartak Moscow Active 122 / 136 40% 2 23.05.2028 -
Calum Kavanagh Oldham Athletic Active 108 / 103 40% 2 22.05.2028 -
Darnell Furlong Leyton Orient Rejected 128 / 124 40% 1 22.05.2028 -
Ismail Achik Salernitana Active 113 / 112 40% 1 22.05.2028 -
Danil Akhatov Ufa Active 94 / 92 40% 1 19.05.2028 -
Bradley Ibrahim Plymouth Argyle Active 111 / 118 40% 1 17.05.2028 -
Migran Ageyan Ufa Active 98 / 103 40% 1 17.05.2028 -
Ilja Vakhania Krasnodar Active 136 / 131 40% 4 16.05.2028 -
Gerzino Nyamsi Lokomotiv Moscow Active 114 / 125 40% 4 15.05.2028 -
Luca Vignali Virtus Entella Active 131 / 124 40% 3 15.05.2028 -
Nuri Abdokov Fakel Active 98 / 101 40% 1 15.05.2028 -
Kirill Danilin Ural Active 99 / 103 40% 1 14.05.2028 -
Lewis Wing Reading Active 122 / 119 40% 1 09.05.2028 -
Unax Agote Real Sociedad Active 110 / 120 40% 2 07.05.2028 -
Luca Hoole Shrewsbury Town Active 111 / 107 40% 1 06.05.2028 -
Archie Collins Peterborough United Active 122 / 114 40% 1 05.05.2028 -
Aldo Florenzi Cosenza Rejected 131 / 117 40% 2 04.05.2028 Needs More Info
Andy Rinomhota Reading Active 111 / 115 40% 2 02.05.2028 -
Yegor Noskov SKA Khabarovsk Active 86 / 97 40% 1 02.05.2028 -
Arturo Calabresi Crotone Active 118 / 121 40% 1 30.04.2028 -
Denil Maldonado Rubin Active 114 / 129 40% 3 25.04.2028 -
Lucas Vera Lokomotiv Moscow Active 127 / 122 40% 3 25.04.2028 -
Nicola Mosti Catanzaro Active 127 / 122 40% 1 23.04.2028 -
Ethan Erhahon Cheltenham Town Active 123 / 121 40% 2 17.04.2028 -
Temirkan Sundukov Dinamo Makhachkala Active 104 / 110 40% 1 16.04.2028 -
Alexandr Kovalenko Sochi Active 103 / 121 40% 2 15.04.2028 -
James Dornelly Peterborough United Active 116 / 111 40% 1 14.04.2028 -
Stefan Lončar Akron Active 104 / 108 40% 2 12.04.2028 -
César Montes Lokomotiv Moscow Active 122 / 138 40% 3 11.04.2028 -
Darko Todorović Fakel Active 108 / 116 40% 1 11.04.2028 -
Maxim Shnaptsev Baltika Active 112 / 105 40% 1 07.04.2028 -
Daniil Zorin Rotor Active 99 / 114 40% 1 06.04.2028 -
Dmitry Barinov CSKA Moscow Active 135 / 132 40% 3 04.04.2028 -
Sam Mather Walsall Active 99 / 110 40% 1 02.04.2028 -
Giuseppe Panico Foggia Active 129 / 120 40% 1 30.03.2028 -
Nikita Demchenko Spartak Kostroma Active 106 / 91 40% 1 27.03.2028 -
Yegor Teslenko Rubin Active 115 / 126 40% 3 23.03.2028 -
Danila Sukhomlinov Neftekhimik Active 100 / 98 40% 1 22.03.2028 -
Damián Puebla Dinamo Moscow Active 131 / 137 40% 1 22.03.2028 -
Lorenzo Venuti Ternana Active 116 / 122 40% 1 21.03.2028 -
Timofey Shipunov Ufa Active 83 / 93 40% 1 18.03.2028 -
Andrea Meroni Mantova Active 131 / 123 40% 2 17.03.2028 -
Josh Laurent Notts County Active 134 / 130 40% 2 17.03.2028 -
Nikita Kakkoev Nizhniy Novgorod Active 114 / 111 40% 3 13.03.2028 -
Stefan Kovač Baltika Active 109 / 113 40% 1 11.03.2028 -
Alexandr Soldatenkov Sochi Active 124 / 122 40% 2 08.03.2028 -
Everton Moraes Shakhter Active 116 / 113 40% 1 05.03.2028 -
Edgardo Fariña Nizhniy Novgorod Active 106 / 119 40% 1 04.03.2028 -
Miroslav Bogosavac Akhmat Grozny Active 118 / 122 40% 4 03.03.2028 -
Dardan Shabanhaxhaj Rubin Active 116 / 117 40% 1 28.02.2028 -
Vyacheslav Grulev Nizhniy Novgorod Active 115 / 107 40% 2 26.02.2028 -
Douglas Augusto Krasnodar Active 144 / 138 40% 2 24.02.2028 -
Moisés CSKA Moscow Active 120 / 126 40% 1 21.02.2028 -
Anton Miranchuk Dinamo Moscow Active 113 / 133 40% 2 18.02.2028 -
Jorginho Kairat Active 122 / 120 40% 2 10.02.2028 -
Aleksa Amanović Ordabasy Active 108 / 119 40% 1 08.02.2028 -
Guljigit Alykulov Dinamo Minsk Active 103 / 98 40% 1 04.02.2028 -
Luís Mata Kairat Active 109 / 121 40% 1 28.01.2028 -
Lautaro Vargas Unión de Santa Fe Active 131 / 126 40% 1 28.01.2028 -
Fawaz Abdullahi Dinamo Minsk Active 103 / 101 40% 1 27.01.2028 -
Mathías de Ritis San Lorenzo Active 136 / 126 40% 1 24.01.2028 -
Ryan Hedges Derby County Active 118 / 116 40% 1 22.01.2028 -
Iker Pozo Rodina Active 110 / 116 40% 1 20.01.2028 -
Ignacio Saavedra Sochi Active 112 / 118 40% 2 17.01.2028 -
Thomas Galdames Krylya Sovetov Active 138 / 119 40% 2 14.01.2028 -
Yeferson Rodallega Envigado Active 119 / 106 40% 1 14.01.2028 -
Alexey Antilevskiy Slavia Mozyr Active 100 / 90 40% 1 06.01.2028 -
Ettore Gliozzi Mantova Active 117 / 123 40% 1 04.01.2028 -
Roberto Fernández Dinamo Moscow Active 129 / 131 40% 1 01.01.2028 -
Manuel Cicconi Sampdoria Active 117 / 120 40% 1 26.12.2027 -
Facundo Altamirano San Lorenzo Active 131 / 114 40% 1 25.12.2027 -
Shahzod Rahmatullayev Qizilqum Active 87 / 93 40% 1 22.12.2027 -
Rustam Yatimov Rostov Active 107 / 113 40% 2 21.12.2027 -
Demba Thiam Monza Active 125 / 131 40% 1 21.12.2027 -
Ilja Pomazun Spartak Moscow Active 140 / 118 40% 2 20.12.2027 -
Igor Leschuk Dinamo Moscow Active 109 / 120 40% 1 19.12.2027 -
Francisco Ortega River Plate Active 117 / 119 40% 2 17.12.2027 -
Daniil Motorin Rubin Active 105 / 98 40% 1 17.12.2027 -
Daniil Gurchenko Spartak Tambov Active 79 / 92 40% 1 17.12.2027 -
Cleiton Spartak Moscow Active 115 / 126 40% 1 13.12.2027 -
Jaïro Riedewald Sheffield United Active 124 / 123 40% 1 08.12.2027 -
Karen Vardanyan Dinamo Minsk Active 86 / 95 40% 1 06.12.2027 -
Joe Gauci Leeds United Active 118 / 118 40% 1 05.12.2027 -
Agustín Obregón River Plate Active 105 / 124 40% 1 01.12.2027 -
Zane Albarus Shrewsbury Town Active 97 / 100 40% 1 01.12.2027 -
Ugochukwu Iwu Rubin Active 113 / 129 40% 1 30.11.2027 -
Nikita Kokarev Spartak Moscow Active 117 / 134 40% 1 28.11.2027 -
Nathan Gassama Baltika Active 110 / 128 40% 1 25.11.2027 -
Houssem Mrezigue Dinamo Moscow Active 130 / 120 40% 1 25.11.2027 -
Joaquín Almería Active 117 / 124 40% 1 19.11.2027 -
Adrian Skogmar Malmo FF Active 110 / 124 40% 1 17.11.2027 -
Yegor Vedernikov Irkutsk Active 88 / 93 40% 2 16.11.2027 -
Stanislav Bukatov Salyut Active 60 / 83 40% 1 16.11.2027 -
Facundo Balatti Penarol Active 119 / 109 40% 4 15.11.2027 -
Rasmus Nehrman Gefle Active 77 / 80 40% 1 11.11.2027 -
Artem Nosachev Spartak Moscow Active 60 / 73 40% 2 10.11.2027 -
Omar Minatulaev Orenburg Active 92 / 91 40% 1 10.11.2027 -
Dmitry Alexandrov Dinamo Moscow Active 86 / 105 40% 3 08.11.2027 -
Andrey Ivlev Nizhniy Novgorod Active 110 / 112 40% 2 08.11.2027 -
Matvey Zakharzhevskiy Legion Active 68 / 69 40% 1 05.11.2027 -
Diego Vargas Universidad de Concepcion Active 83 / 97 40% 2 04.11.2027 -
Maxim Radchenko Rostov Active 88 / 95 40% 1 12.10.2027 -
Matias Siltanen Malmo FF Active 131 / 137 40% 1 12.10.2027 -
Björn Hedlöf Helsingborg Active 93 / 95 40% 1 11.10.2027 -
Nika Dumbadze Dinamo Batumi Active 64 / 84 40% 1 07.10.2027 -
Tiago Gordillo San Miguel Active 95 / 98 40% 1 06.10.2027 -
Chibueze Oputa Rangers International Active 77 / 86 40% 1 08.09.2027 -
Victor Hernandez Santa Fe Active 108 / 119 40% 2 04.09.2027 -
Joelson Gamarra General Caballero Active 83 / 72 40% 1 30.08.2027 -
Denis Grigorjev Arsenal Tula Active 94 / 82 40% 1 27.08.2027 -
Zakhar Baranok Torpedo-BelAZ Active 88 / 80 40% 1 26.08.2027 -
Lucas Camejo River Plate Active 93 / 91 40% 1 26.08.2027 -
Félix Noubara AS PSI Active 57 / 71 40% 1 25.08.2027 -
Gideon Manaseh Ikorodu City Active 106 / 91 40% 1 19.08.2027 -
Kirill Volkov Volgar Active 78 / 96 40% 3 18.08.2027 -
Sebastián Flores Ferro Carril Oeste Active 90 / 107 40% 1 12.08.2027 -
Aaron Branca Artigas Active 64 / 93 40% 1 08.08.2027 -
Matías Canedo Rampla Juniors Active 83 / 102 40% 1 06.08.2027 -
Juan Manuel Villalba Tigre Active 131 / 124 40% 1 26.07.2027 -
Martim Cunha Porto Active 101 / 110 40% 1 25.07.2027 -
Jaygo van Ommeren Utrecht Active 111 / 113 40% 1 23.07.2027 -
Kiani Inge Groningen Active 99 / 111 40% 2 17.07.2027 -
Lucas Mbamba Westerlo Active 92 / 95 40% 1 04.07.2027 -
Daniil Kiryagin Rubin Active 90 / 91 40% 1 04.07.2027 -
Alexandr Burkov Rodina M Active 70 / 78 40% 1 02.07.2027 -
Denis Konshin Avangard Active 82 / 72 40% 1 01.07.2027 -
Artem Luttsev Saturn Active 87 / 68 40% 2 29.06.2027 -
Alexandr Metsiev Sochi Active 89 / 68 40% 1 29.06.2027 -
Norbert Barczak Korona Active 81 / 100 40% 1 25.06.2027 -
Leandro Martins Benfica Active 106 / 105 40% 2 23.06.2027 -
Bogdan Matsola Nart Active 79 / 72 40% 1 23.06.2027 -
Kazunari Kita Real Sociedad Active 97 / 108 40% 2 20.06.2027 -
Ilja Zubenko Rostov Active 65 / 82 40% 2 18.06.2027 -
Wessel Kuhn PSV Active 96 / 117 40% 1 31.05.2027 -
Alan Tsaraev Arsenal Tula Active 107 / 99 40% 1 02.08.2026 -